createdAt,value
2022-12-22T00:00:19.980Z,1.70
2022-12-22T00:03:05.448Z,1.60
2022-12-22T00:08:36.893Z,1.60
2022-12-22T00:11:28.675Z,1.70
2022-12-22T00:16:59.913Z,1.70
2022-12-22T00:19:47.602Z,1.80
2022-12-22T00:22:41.148Z,1.80
2022-12-22T00:25:26.541Z,1.80
2022-12-22T00:28:11.979Z,1.60
2022-12-22T00:30:57.566Z,1.60
2022-12-22T00:33:43.185Z,1.50
2022-12-22T00:36:30.723Z,1.60
2022-12-22T00:39:16.143Z,1.60
2022-12-22T00:42:01.761Z,1.70
2022-12-22T00:47:41.278Z,1.90
2022-12-22T00:50:27.493Z,1.80
2022-12-22T00:53:13.648Z,1.80
2022-12-22T00:58:45.681Z,1.90
2022-12-22T01:01:31.864Z,1.80
2022-12-22T01:04:17.331Z,1.70
2022-12-22T01:07:02.831Z,1.90
2022-12-22T01:09:48.445Z,1.80
2022-12-22T01:12:38.751Z,1.80
2022-12-22T01:15:36.273Z,1.90
2022-12-22T01:18:22.057Z,1.80
2022-12-22T01:21:08.143Z,1.80
2022-12-22T01:23:53.836Z,1.70
2022-12-22T01:26:39.672Z,1.80
2022-12-22T01:29:25.151Z,1.80
2022-12-22T01:32:10.800Z,1.80
2022-12-22T01:37:42.494Z,1.90
2022-12-22T01:40:36.135Z,1.90
2022-12-22T01:46:07.854Z,2.00
2022-12-22T01:48:53.436Z,2.00
2022-12-22T01:51:44.099Z,2.00
2022-12-22T01:54:32.144Z,2.00
2022-12-22T01:57:17.839Z,1.90
2022-12-22T02:00:03.655Z,2.00
2022-12-22T02:02:50.588Z,2.00
2022-12-22T02:05:37.226Z,1.90
2022-12-22T02:08:57.760Z,1.90
2022-12-22T02:12:33.357Z,2.00
2022-12-22T02:15:31.316Z,2.10
2022-12-22T02:18:35.275Z,2.20
2022-12-22T02:21:26.532Z,2.10
2022-12-22T02:24:37.423Z,2.10
2022-12-22T02:27:25.154Z,2.10
2022-12-22T02:30:14.158Z,2.10
2022-12-22T02:33:08.967Z,2.20
2022-12-22T02:36:04.341Z,2.30
2022-12-22T02:38:55.544Z,2.30
2022-12-22T02:44:54.262Z,2.30
2022-12-22T02:47:44.520Z,2.30
2022-12-22T02:50:39.040Z,2.20
2022-12-22T02:53:26.747Z,2.20
2022-12-22T02:56:29.443Z,2.20
2022-12-22T02:59:15.722Z,2.10
2022-12-22T03:02:05.055Z,2.30
2022-12-22T03:04:50.752Z,2.20
2022-12-22T03:07:36.099Z,2.20
2022-12-22T03:10:22.088Z,2.20
2022-12-22T03:21:25.032Z,2.30
2022-12-22T03:29:06.320Z,2.30
2022-12-22T03:34:00.783Z,2.30
2022-12-22T03:36:27.925Z,2.10
2022-12-22T03:38:54.809Z,2.00
2022-12-22T03:49:22.460Z,2.10
2022-12-22T03:51:51.384Z,2.10
2022-12-22T03:54:21.063Z,2.10
2022-12-22T03:56:48.721Z,2.00
2022-12-22T03:59:16.542Z,2.00
2022-12-22T04:01:45.870Z,2.10
2022-12-22T04:04:14.225Z,2.00
2022-12-22T04:06:41.646Z,2.00
2022-12-22T04:09:09.338Z,2.10
2022-12-22T04:11:54.929Z,2.10
2022-12-22T04:14:25.295Z,2.10
2022-12-22T04:16:54.834Z,2.10
2022-12-22T04:19:21.783Z,2.00
2022-12-22T04:21:48.614Z,2.20
2022-12-22T04:24:15.567Z,2.10
2022-12-22T04:29:09.814Z,2.10
2022-12-22T04:31:36.855Z,2.10
2022-12-22T04:34:03.786Z,2.10
2022-12-22T04:36:30.726Z,2.10
2022-12-22T04:38:57.569Z,2.20
2022-12-22T04:46:18.918Z,2.40
2022-12-22T04:51:13.043Z,2.40
2022-12-22T04:53:39.866Z,2.30
2022-12-22T04:56:07.973Z,2.20
2022-12-22T04:58:35.312Z,2.00
2022-12-22T05:01:16.488Z,2.00
2022-12-22T05:03:43.968Z,2.00
2022-12-22T05:06:11.847Z,2.10
2022-12-22T05:08:39.131Z,2.10
2022-12-22T05:11:06.951Z,2.00
2022-12-22T05:16:09.923Z,2.00
2022-12-22T05:18:38.299Z,2.00
2022-12-22T05:21:17.393Z,2.10
2022-12-22T05:23:44.968Z,2.00
2022-12-22T05:28:42.936Z,2.10
2022-12-22T05:31:14.887Z,2.10
2022-12-22T05:33:41.754Z,2.10
2022-12-22T05:36:08.927Z,2.20
2022-12-22T05:43:32.701Z,2.00
2022-12-22T05:46:06.102Z,2.00
2022-12-22T05:48:38.170Z,1.90
2022-12-22T05:51:07.915Z,2.10
2022-12-22T05:53:34.932Z,2.20
2022-12-22T05:58:29.118Z,2.20
2022-12-22T06:01:00.224Z,2.10
2022-12-22T06:03:27.988Z,2.20
2022-12-22T06:08:22.712Z,2.30
2022-12-22T06:13:17.177Z,2.20
2022-12-22T06:15:44.457Z,2.40
2022-12-22T06:18:11.360Z,2.50
2022-12-22T06:25:33.368Z,2.30
2022-12-22T06:30:32.600Z,2.40
2022-12-22T06:35:28.228Z,2.50
2022-12-22T06:37:55.163Z,2.50
2022-12-22T06:40:21.968Z,2.20
2022-12-22T06:45:38.086Z,2.40
2022-12-22T06:48:05.716Z,2.30
2022-12-22T06:50:33.057Z,2.50
2022-12-22T06:53:00.547Z,2.50
2022-12-22T07:02:49.960Z,2.40
2022-12-22T07:05:17.167Z,2.60
2022-12-22T07:10:11.895Z,2.40
2022-12-22T07:12:38.792Z,2.30
2022-12-22T07:15:06.078Z,2.60
2022-12-22T07:17:32.996Z,2.60
2022-12-22T07:19:59.922Z,2.60
2022-12-22T07:24:58.385Z,2.60
2022-12-22T07:27:25.473Z,2.60
2022-12-22T07:29:52.357Z,2.40
2022-12-22T07:34:46.596Z,2.30
2022-12-22T07:37:13.907Z,2.50
2022-12-22T07:39:41.085Z,2.50
2022-12-22T07:42:29.141Z,2.40
2022-12-22T07:47:23.133Z,2.70
2022-12-22T07:50:09.023Z,2.70
2022-12-22T07:55:03.108Z,2.50
2022-12-22T07:57:30.021Z,2.60
2022-12-22T08:04:51.645Z,2.90
2022-12-22T08:07:18.479Z,2.80
2022-12-22T08:12:12.612Z,2.90
2022-12-22T08:17:06.641Z,2.70
2022-12-22T08:19:33.493Z,2.80
2022-12-22T08:22:01.327Z,3.00
2022-12-22T08:24:28.193Z,2.80
2022-12-22T08:26:59.006Z,2.90
2022-12-22T08:29:36.243Z,2.90
2022-12-22T08:32:03.263Z,3.00
2022-12-22T08:34:30.666Z,3.10
2022-12-22T08:37:00.936Z,3.10
2022-12-22T08:39:32.087Z,3.00
2022-12-22T08:41:59.878Z,2.90
2022-12-22T08:44:28.939Z,3.00
2022-12-22T08:46:58.293Z,3.20
2022-12-22T08:51:53.276Z,3.20
2022-12-22T08:54:21.155Z,3.10
2022-12-22T08:56:48.240Z,3.10
2022-12-22T09:01:44.739Z,3.10
2022-12-22T09:04:16.408Z,3.20
2022-12-22T09:09:13.212Z,3.20
2022-12-22T09:11:40.903Z,3.20
2022-12-22T09:14:08.976Z,3.10
2022-12-22T09:19:04.201Z,2.90
2022-12-22T09:21:31.321Z,2.90
2022-12-22T09:23:58.845Z,3.10
2022-12-22T09:26:27.962Z,3.20
2022-12-22T09:28:55.590Z,3.50
2022-12-22T09:31:24.798Z,4.10
2022-12-22T09:33:52.218Z,4.90
2022-12-22T09:36:26.249Z,5.20
2022-12-22T09:41:31.790Z,5.60
2022-12-22T09:44:06.673Z,6.10
2022-12-22T09:46:36.050Z,6.60
2022-12-22T09:49:06.361Z,7.00
2022-12-22T09:51:40.584Z,7.60
2022-12-22T09:54:12.009Z,7.80
2022-12-22T09:59:17.465Z,6.20
2022-12-22T10:01:47.104Z,6.00
2022-12-22T10:04:22.969Z,5.60
2022-12-22T10:07:26.800Z,5.00
2022-12-22T10:09:53.577Z,4.90
2022-12-22T10:12:23.716Z,4.40
2022-12-22T10:14:52.475Z,4.50
2022-12-22T10:17:28.464Z,4.30
2022-12-22T10:20:09.029Z,4.30
2022-12-22T10:22:46.462Z,4.10
2022-12-22T10:25:26.699Z,3.80
2022-12-22T10:27:56.403Z,3.80
2022-12-22T10:30:29.567Z,3.60
2022-12-22T10:33:08.505Z,3.50
2022-12-22T10:35:54.657Z,3.50
2022-12-22T10:38:31.089Z,3.50
2022-12-22T10:41:13.181Z,3.50
2022-12-22T10:43:47.836Z,3.60
2022-12-22T10:46:15.104Z,3.60
2022-12-22T10:48:42.054Z,3.30
2022-12-22T10:51:13.207Z,3.40
2022-12-22T10:53:55.563Z,3.30
2022-12-22T10:56:30.697Z,3.20
2022-12-22T10:59:20.039Z,3.30
2022-12-22T11:01:47.175Z,3.30
2022-12-22T11:04:28.197Z,3.20
2022-12-22T11:07:09.454Z,3.40
2022-12-22T11:09:36.512Z,3.20
2022-12-22T11:12:22.573Z,3.30
2022-12-22T11:15:04.259Z,3.10
2022-12-22T11:18:09.728Z,3.20
2022-12-22T11:23:09.259Z,3.30
2022-12-22T11:25:51.019Z,3.40
2022-12-22T11:28:38.688Z,3.60
2022-12-22T11:31:24.350Z,3.50
2022-12-22T11:34:21.279Z,3.40
2022-12-22T11:36:54.022Z,3.40
2022-12-22T11:39:30.621Z,3.50
2022-12-22T11:42:21.885Z,3.70
2022-12-22T11:45:22.293Z,3.70
2022-12-22T11:48:12.183Z,3.70
2022-12-22T11:51:00.928Z,3.70
2022-12-22T11:53:50.486Z,3.60
2022-12-22T11:56:24.639Z,3.60
2022-12-22T11:59:13.503Z,3.60
2022-12-22T12:01:53.125Z,3.80
2022-12-22T12:04:37.859Z,3.70
2022-12-22T12:07:25.425Z,3.80
2022-12-22T12:10:22.911Z,3.80
2022-12-22T12:13:16.876Z,4.20
2022-12-22T12:16:00.023Z,4.50
2022-12-22T12:18:54.475Z,4.90
2022-12-22T12:21:30.187Z,5.60
2022-12-22T12:24:08.459Z,6.00
2022-12-22T12:26:48.062Z,6.50
2022-12-22T12:29:27.232Z,6.70
2022-12-22T12:32:29.826Z,6.90
2022-12-22T12:35:19.077Z,7.00
2022-12-22T12:37:50.287Z,7.10
2022-12-22T12:40:23.031Z,7.00
2022-12-22T12:42:52.315Z,6.50
2022-12-22T12:45:43.572Z,6.10
2022-12-22T12:48:23.288Z,5.70
2022-12-22T12:50:50.904Z,5.50
2022-12-22T12:53:22.104Z,5.30
2022-12-22T12:55:53.625Z,5.30
2022-12-22T12:58:35.577Z,5.00
2022-12-22T13:01:18.461Z,4.70
2022-12-22T13:04:04.630Z,4.70
2022-12-22T13:06:49.789Z,4.60
2022-12-22T13:12:34.846Z,5.00
2022-12-22T13:17:49.487Z,4.80
2022-12-22T13:20:38.539Z,4.90
2022-12-22T13:23:13.313Z,4.80
2022-12-22T13:25:48.196Z,4.70
2022-12-22T13:28:20.360Z,4.70
2022-12-22T13:30:53.796Z,4.70
2022-12-22T13:33:26.011Z,4.60
2022-12-22T13:35:58.505Z,4.50
2022-12-22T13:38:33.629Z,4.40
2022-12-22T13:41:04.646Z,4.30
2022-12-22T13:43:33.153Z,4.40
2022-12-22T13:46:02.801Z,4.40
2022-12-22T13:48:44.749Z,4.30
2022-12-22T13:51:29.080Z,4.30
2022-12-22T13:54:12.065Z,4.20
2022-12-22T13:56:43.616Z,4.20
2022-12-22T13:59:40.554Z,4.20
2022-12-22T14:02:11.378Z,4.10
2022-12-22T14:04:40.912Z,4.10
2022-12-22T14:07:15.840Z,4.10
2022-12-22T14:09:50.364Z,4.10
2022-12-22T14:12:21.295Z,4.20
2022-12-22T14:14:51.112Z,4.10
2022-12-22T14:17:30.050Z,4.10
2022-12-22T14:19:59.658Z,4.10
2022-12-22T14:22:36.835Z,3.80
2022-12-22T14:25:13.495Z,4.00
2022-12-22T14:27:52.930Z,4.10
2022-12-22T14:30:22.326Z,4.00
2022-12-22T14:32:56.873Z,4.00
2022-12-22T14:35:28.293Z,4.00
2022-12-22T14:38:06.973Z,4.10
2022-12-22T14:40:42.045Z,4.00
2022-12-22T14:43:17.739Z,4.00
2022-12-22T14:45:49.527Z,3.90
2022-12-22T14:48:49.413Z,3.90
2022-12-22T14:51:18.658Z,3.90
2022-12-22T14:53:55.559Z,3.80
2022-12-22T14:56:22.933Z,3.70
2022-12-22T14:58:50.423Z,3.70
2022-12-22T15:01:28.605Z,3.50
2022-12-22T15:04:04.836Z,3.50
2022-12-22T15:06:40.079Z,3.10
2022-12-22T15:11:41.837Z,3.40
2022-12-22T15:14:16.274Z,3.50
2022-12-22T15:16:44.705Z,3.50
2022-12-22T15:19:15.158Z,3.50
2022-12-22T15:21:42.169Z,3.60
2022-12-22T15:24:13.438Z,3.60
2022-12-22T15:26:40.283Z,3.50
2022-12-22T15:29:07.262Z,3.50
2022-12-22T15:31:34.915Z,3.50
2022-12-22T15:34:04.437Z,3.50
2022-12-22T15:36:31.356Z,3.50
2022-12-22T15:38:58.278Z,3.60
2022-12-22T15:41:25.159Z,3.40
2022-12-22T15:43:59.629Z,3.40
2022-12-22T15:46:27.060Z,3.40
2022-12-22T15:51:24.915Z,3.60
2022-12-22T15:53:52.366Z,3.50
2022-12-22T15:56:22.181Z,3.40
2022-12-22T15:58:49.758Z,3.40
2022-12-22T16:01:17.074Z,3.40
2022-12-22T16:06:16.001Z,3.30
2022-12-22T16:08:48.851Z,3.20
2022-12-22T16:11:16.346Z,3.40
2022-12-22T16:18:38.809Z,3.30
2022-12-22T16:21:12.244Z,3.30
2022-12-22T16:23:40.876Z,3.40
2022-12-22T16:26:07.724Z,3.40
2022-12-22T16:28:34.706Z,3.40
2022-12-22T16:35:56.570Z,3.70
2022-12-22T16:40:52.666Z,3.60
2022-12-22T16:43:49.806Z,3.50
2022-12-22T16:46:19.848Z,3.70
2022-12-22T16:48:50.648Z,3.80
2022-12-22T16:51:24.315Z,3.70
2022-12-22T16:56:21.651Z,3.60
2022-12-22T16:58:48.907Z,3.40
2022-12-22T17:01:55.307Z,3.50
2022-12-22T17:04:28.104Z,3.50
2022-12-22T17:06:57.077Z,3.50
2022-12-22T17:09:28.720Z,3.40
2022-12-22T17:11:55.794Z,3.50
2022-12-22T17:14:29.318Z,3.40
2022-12-22T17:19:23.912Z,3.60
2022-12-22T17:21:53.648Z,3.50
2022-12-22T17:24:27.893Z,3.60
2022-12-22T17:27:01.200Z,3.60
2022-12-22T17:29:28.433Z,3.60
2022-12-22T17:36:51.670Z,3.60
2022-12-22T17:39:23.124Z,3.50
2022-12-22T17:41:56.253Z,3.50
2022-12-22T17:44:26.153Z,3.60
2022-12-22T17:46:53.717Z,3.60
2022-12-22T17:49:22.456Z,3.60
2022-12-22T17:51:50.013Z,3.80
2022-12-22T17:54:25.758Z,3.60
2022-12-22T17:56:58.440Z,3.70
2022-12-22T17:59:25.310Z,3.60
2022-12-22T18:04:19.604Z,3.80
2022-12-22T18:06:46.997Z,3.70
2022-12-22T18:09:23.949Z,3.80
2022-12-22T18:11:51.171Z,3.80
2022-12-22T18:14:24.192Z,3.90
2022-12-22T18:16:51.125Z,3.90
2022-12-22T18:19:18.080Z,3.90
2022-12-22T18:24:17.247Z,3.80
2022-12-22T18:26:44.566Z,3.80
2022-12-22T18:29:18.873Z,3.70
2022-12-22T18:31:45.933Z,3.80
2022-12-22T18:36:42.642Z,3.80
2022-12-22T18:39:19.125Z,3.70
2022-12-22T18:44:17.341Z,3.80
2022-12-22T18:46:44.600Z,3.80
2022-12-22T18:49:11.615Z,3.70
2022-12-22T18:51:38.749Z,3.70
2022-12-22T18:54:24.574Z,3.80
2022-12-22T18:59:24.413Z,3.80
2022-12-22T19:06:46.841Z,4.00
2022-12-22T19:09:15.665Z,3.90
2022-12-22T19:11:43.386Z,4.00
2022-12-22T19:14:22.164Z,3.90
2022-12-22T19:16:49.397Z,3.90
2022-12-22T19:19:20.639Z,3.90
2022-12-22T19:21:49.648Z,4.00
2022-12-22T19:24:16.654Z,3.80
2022-12-22T19:29:13.724Z,4.00
2022-12-22T19:31:41.167Z,4.10
2022-12-22T19:34:15.507Z,4.20
2022-12-22T19:41:47.677Z,4.00
2022-12-22T19:44:35.727Z,4.00
2022-12-22T19:47:03.086Z,4.00
2022-12-22T19:51:57.685Z,3.90
2022-12-22T19:54:25.609Z,4.00
2022-12-22T19:56:55.281Z,3.90
2022-12-22T19:59:38.966Z,3.90
2022-12-22T20:02:31.619Z,4.10
2022-12-22T20:07:29.618Z,4.20
2022-12-22T20:12:25.795Z,4.10
2022-12-22T20:14:53.586Z,4.20
2022-12-22T20:17:20.985Z,4.20
2022-12-22T20:22:20.137Z,4.40
2022-12-22T20:24:48.882Z,4.30
2022-12-22T20:27:23.394Z,4.40
2022-12-22T20:32:22.307Z,4.30
2022-12-22T20:34:54.146Z,4.30
2022-12-22T20:37:21.001Z,4.20
2022-12-22T20:39:47.963Z,4.30
2022-12-22T20:42:23.150Z,4.40
2022-12-22T20:45:02.421Z,4.30
2022-12-22T20:47:30.806Z,4.30
2022-12-22T20:49:57.673Z,4.20
2022-12-22T20:52:24.564Z,4.20
2022-12-22T20:57:27.463Z,4.20
2022-12-22T20:59:56.635Z,4.20
2022-12-22T21:02:28.312Z,4.20
2022-12-22T21:09:49.984Z,4.30
2022-12-22T21:12:18.169Z,4.10
2022-12-22T21:14:45.054Z,4.10
2022-12-22T21:17:18.896Z,4.20
2022-12-22T21:19:45.967Z,4.00
2022-12-22T21:24:41.910Z,4.20
2022-12-22T21:27:17.037Z,4.20
2022-12-22T21:29:44.085Z,4.30
2022-12-22T21:32:15.512Z,4.20
2022-12-22T21:37:17.365Z,4.10
2022-12-22T21:39:44.975Z,4.30
2022-12-22T21:42:20.091Z,4.30
2022-12-22T21:44:47.053Z,4.20
2022-12-22T21:47:17.092Z,4.20
2022-12-22T21:49:43.976Z,4.00
2022-12-22T21:52:10.810Z,4.00
2022-12-22T21:54:37.945Z,4.00
2022-12-22T21:57:06.022Z,3.90
2022-12-22T21:59:32.965Z,4.20
2022-12-22T22:01:59.875Z,4.10
2022-12-22T22:12:07.408Z,4.20
2022-12-22T22:17:01.578Z,4.00
2022-12-22T22:19:28.502Z,4.00
2022-12-22T22:24:22.548Z,4.00
2022-12-22T22:26:51.772Z,4.10
2022-12-22T22:29:18.978Z,4.00
2022-12-22T22:31:46.046Z,4.00
2022-12-22T22:34:12.977Z,4.10
2022-12-22T22:36:39.890Z,4.10
2022-12-22T22:39:06.801Z,4.20
2022-12-22T22:44:09.691Z,4.20
2022-12-22T22:49:04.228Z,4.00
2022-12-22T22:51:31.339Z,4.20
2022-12-22T22:53:58.414Z,4.00
2022-12-22T22:56:25.270Z,4.20
2022-12-22T22:58:52.177Z,4.10
2022-12-22T23:03:46.424Z,4.00
2022-12-22T23:06:14.042Z,4.00
2022-12-22T23:08:41.011Z,4.00
2022-12-22T23:11:13.948Z,4.10
2022-12-22T23:13:41.789Z,4.20
2022-12-22T23:16:10.191Z,4.30
2022-12-22T23:18:37.338Z,4.30
2022-12-22T23:21:07.170Z,4.20
2022-12-22T23:23:34.829Z,4.10
2022-12-22T23:26:01.809Z,4.10
2022-12-22T23:28:28.694Z,4.20
2022-12-22T23:30:55.535Z,4.10
2022-12-22T23:33:22.480Z,4.10
2022-12-22T23:35:50.366Z,4.10
2022-12-22T23:38:18.941Z,4.00
2022-12-22T23:43:22.476Z,4.00
2022-12-22T23:45:49.432Z,4.20
2022-12-22T23:50:47.163Z,4.00
2022-12-22T23:53:14.741Z,4.00
2022-12-22T23:55:48.784Z,3.90
2022-12-22T23:58:16.655Z,4.00
